sensor_id;sensor_type;location;lat;lon;timestamp;P1;durP1;ratioP1;P2;durP2;ratioP2
48871;SDS011;36154;51.674;7.824;2022-11-25T00:00:31;0.90;;;0.30;;
48871;SDS011;36154;51.674;7.824;2022-11-25T00:02:56;0.57;;;0.32;;
48871;SDS011;36154;51.674;7.824;2022-11-25T00:05:23;0.43;;;0.30;;
48871;SDS011;36154;51.674;7.824;2022-11-25T00:07:49;0.28;;;0.28;;
48871;SDS011;36154;51.674;7.824;2022-11-25T00:10:14;0.40;;;0.20;;
48871;SDS011;36154;51.674;7.824;2022-11-25T00:12:40;0.20;;;0.20;;
48871;SDS011;36154;51.674;7.824;2022-11-25T00:15:05;0.40;;;0.30;;
48871;SDS011;36154;51.674;7.824;2022-11-25T00:17:31;0.40;;;0.20;;
48871;SDS011;36154;51.674;7.824;2022-11-25T00:19:56;0.30;;;0.30;;
48871;SDS011;36154;51.674;7.824;2022-11-25T00:22:25;0.30;;;0.20;;
48871;SDS011;36154;51.674;7.824;2022-11-25T00:24:50;0.30;;;0.30;;
48871;SDS011;36154;51.674;7.824;2022-11-25T00:27:15;0.22;;;0.20;;
48871;SDS011;36154;51.674;7.824;2022-11-25T00:29:41;0.38;;;0.28;;
48871;SDS011;36154;51.674;7.824;2022-11-25T00:32:06;0.22;;;0.20;;
48871;SDS011;36154;51.674;7.824;2022-11-25T00:34:31;0.45;;;0.30;;
48871;SDS011;36154;51.674;7.824;2022-11-25T00:36:56;0.40;;;0.30;;
48871;SDS011;36154;51.674;7.824;2022-11-25T00:39:22;0.38;;;0.20;;
48871;SDS011;36154;51.674;7.824;2022-11-25T00:41:49;0.20;;;0.20;;
48871;SDS011;36154;51.674;7.824;2022-11-25T00:47:05;0.38;;;0.28;;
48871;SDS011;36154;51.674;7.824;2022-11-25T00:49:39;0.10;;;0.10;;
48871;SDS011;36154;51.674;7.824;2022-11-25T00:52:06;0.20;;;0.20;;
48871;SDS011;36154;51.674;7.824;2022-11-25T00:54:33;0.90;;;0.30;;
48871;SDS011;36154;51.674;7.824;2022-11-25T00:56:59;0.30;;;0.30;;
48871;SDS011;36154;51.674;7.824;2022-11-25T00:59:24;0.32;;;0.20;;
48871;SDS011;36154;51.674;7.824;2022-11-25T01:01:50;0.50;;;0.20;;
48871;SDS011;36154;51.674;7.824;2022-11-25T01:04:15;0.30;;;0.25;;
48871;SDS011;36154;51.674;7.824;2022-11-25T01:06:41;0.20;;;0.20;;
48871;SDS011;36154;51.674;7.824;2022-11-25T01:09:06;0.40;;;0.20;;
48871;SDS011;36154;51.674;7.824;2022-11-25T01:11:32;0.28;;;0.22;;
48871;SDS011;36154;51.674;7.824;2022-11-25T01:13:58;0.30;;;0.15;;
48871;SDS011;36154;51.674;7.824;2022-11-25T01:16:23;0.20;;;0.20;;
48871;SDS011;36154;51.674;7.824;2022-11-25T01:18:49;0.55;;;0.20;;
48871;SDS011;36154;51.674;7.824;2022-11-25T01:21:16;0.25;;;0.10;;
48871;SDS011;36154;51.674;7.824;2022-11-25T01:23:46;0.50;;;0.20;;
48871;SDS011;36154;51.674;7.824;2022-11-25T01:26:16;0.50;;;0.30;;
48871;SDS011;36154;51.674;7.824;2022-11-25T01:28:46;0.20;;;0.17;;
48871;SDS011;36154;51.674;7.824;2022-11-25T01:31:13;0.55;;;0.30;;
48871;SDS011;36154;51.674;7.824;2022-11-25T01:33:40;0.38;;;0.17;;
48871;SDS011;36154;51.674;7.824;2022-11-25T01:36:10;0.20;;;0.20;;
48871;SDS011;36154;51.674;7.824;2022-11-25T01:38:36;0.25;;;0.20;;
48871;SDS011;36154;51.674;7.824;2022-11-25T01:41:02;0.20;;;0.20;;
48871;SDS011;36154;51.674;7.824;2022-11-25T01:43:28;0.20;;;0.20;;
48871;SDS011;36154;51.674;7.824;2022-11-25T01:45:54;0.30;;;0.20;;
48871;SDS011;36154;51.674;7.824;2022-11-25T01:48:34;0.20;;;0.15;;
48871;SDS011;36154;51.674;7.824;2022-11-25T01:51:23;0.20;;;0.20;;
48871;SDS011;36154;51.674;7.824;2022-11-25T01:53:54;0.22;;;0.20;;
48871;SDS011;36154;51.674;7.824;2022-11-25T01:56:23;0.30;;;0.20;;
48871;SDS011;36154;51.674;7.824;2022-11-25T01:58:51;0.22;;;0.10;;
48871;SDS011;36154;51.674;7.824;2022-11-25T02:01:17;0.17;;;0.17;;
48871;SDS011;36154;51.674;7.824;2022-11-25T02:03:43;0.17;;;0.17;;
48871;SDS011;36154;51.674;7.824;2022-11-25T02:06:29;0.20;;;0.20;;
48871;SDS011;36154;51.674;7.824;2022-11-25T02:09:02;0.20;;;0.20;;
48871;SDS011;36154;51.674;7.824;2022-11-25T02:11:32;0.30;;;0.10;;
48871;SDS011;36154;51.674;7.824;2022-11-25T02:14:00;0.20;;;0.20;;
48871;SDS011;36154;51.674;7.824;2022-11-25T02:16:27;0.30;;;0.10;;
48871;SDS011;36154;51.674;7.824;2022-11-25T02:18:53;0.30;;;0.20;;
48871;SDS011;36154;51.674;7.824;2022-11-25T02:24:25;0.40;;;0.10;;
48871;SDS011;36154;51.674;7.824;2022-11-25T02:26:56;0.20;;;0.10;;
48871;SDS011;36154;51.674;7.824;2022-11-25T02:29:22;0.10;;;0.10;;
48871;SDS011;36154;51.674;7.824;2022-11-25T02:31:48;0.45;;;0.20;;
48871;SDS011;36154;51.674;7.824;2022-11-25T02:34:15;0.17;;;0.17;;
48871;SDS011;36154;51.674;7.824;2022-11-25T02:36:40;0.10;;;0.10;;
48871;SDS011;36154;51.674;7.824;2022-11-25T02:39:05;0.10;;;0.10;;
48871;SDS011;36154;51.674;7.824;2022-11-25T02:41:32;0.85;;;0.20;;
48871;SDS011;36154;51.674;7.824;2022-11-25T02:44:00;0.20;;;0.20;;
48871;SDS011;36154;51.674;7.824;2022-11-25T02:46:27;0.17;;;0.10;;
48871;SDS011;36154;51.674;7.824;2022-11-25T02:48:54;0.20;;;0.10;;
48871;SDS011;36154;51.674;7.824;2022-11-25T02:51:21;0.10;;;0.10;;
48871;SDS011;36154;51.674;7.824;2022-11-25T02:53:48;0.10;;;0.10;;
48871;SDS011;36154;51.674;7.824;2022-11-25T02:56:15;0.52;;;0.25;;
48871;SDS011;36154;51.674;7.824;2022-11-25T02:58:44;0.20;;;0.10;;
48871;SDS011;36154;51.674;7.824;2022-11-25T03:01:09;0.10;;;0.10;;
48871;SDS011;36154;51.674;7.824;2022-11-25T03:03:35;0.15;;;0.10;;
48871;SDS011;36154;51.674;7.824;2022-11-25T03:06:01;0.10;;;0.10;;
48871;SDS011;36154;51.674;7.824;2022-11-25T03:08:26;0.25;;;0.10;;
48871;SDS011;36154;51.674;7.824;2022-11-25T03:10:52;0.10;;;0.10;;
48871;SDS011;36154;51.674;7.824;2022-11-25T03:13:17;0.05;;;0.05;;
48871;SDS011;36154;51.674;7.824;2022-11-25T03:15:43;0.10;;;0.10;;
48871;SDS011;36154;51.674;7.824;2022-11-25T03:18:08;0.63;;;0.10;;
48871;SDS011;36154;51.674;7.824;2022-11-25T03:20:34;0.28;;;0.10;;
48871;SDS011;36154;51.674;7.824;2022-11-25T03:23:00;0.13;;;0.13;;
48871;SDS011;36154;51.674;7.824;2022-11-25T03:25:26;0.70;;;0.20;;
48871;SDS011;36154;51.674;7.824;2022-11-25T03:27:51;0.10;;;0.10;;
48871;SDS011;36154;51.674;7.824;2022-11-25T03:30:18;0.20;;;0.10;;
48871;SDS011;36154;51.674;7.824;2022-11-25T03:32:46;0.20;;;0.20;;
48871;SDS011;36154;51.674;7.824;2022-11-25T03:35:12;0.10;;;0.10;;
48871;SDS011;36154;51.674;7.824;2022-11-25T03:37:38;0.15;;;0.15;;
48871;SDS011;36154;51.674;7.824;2022-11-25T03:40:05;0.10;;;0.10;;
48871;SDS011;36154;51.674;7.824;2022-11-25T03:42:31;0.35;;;0.10;;
48871;SDS011;36154;51.674;7.824;2022-11-25T03:44:57;1.20;;;0.20;;
48871;SDS011;36154;51.674;7.824;2022-11-25T03:47:22;0.10;;;0.10;;
48871;SDS011;36154;51.674;7.824;2022-11-25T03:49:47;0.28;;;0.10;;
48871;SDS011;36154;51.674;7.824;2022-11-25T03:52:13;0.20;;;0.10;;
48871;SDS011;36154;51.674;7.824;2022-11-25T03:54:38;0.10;;;0.10;;
48871;SDS011;36154;51.674;7.824;2022-11-25T03:57:03;0.10;;;0.10;;
48871;SDS011;36154;51.674;7.824;2022-11-25T03:59:29;0.93;;;0.20;;
48871;SDS011;36154;51.674;7.824;2022-11-25T04:01:54;0.47;;;0.20;;
48871;SDS011;36154;51.674;7.824;2022-11-25T04:04:20;0.13;;;0.10;;
48871;SDS011;36154;51.674;7.824;2022-11-25T04:06:45;1.08;;;0.20;;
48871;SDS011;36154;51.674;7.824;2022-11-25T04:09:10;0.32;;;0.10;;
48871;SDS011;36154;51.674;7.824;2022-11-25T04:11:38;0.10;;;0.10;;
48871;SDS011;36154;51.674;7.824;2022-11-25T04:14:22;0.10;;;0.10;;
48871;SDS011;36154;51.674;7.824;2022-11-25T04:16:48;0.40;;;0.10;;
48871;SDS011;36154;51.674;7.824;2022-11-25T04:19:13;0.22;;;0.17;;
48871;SDS011;36154;51.674;7.824;2022-11-25T04:21:38;0.28;;;0.13;;
48871;SDS011;36154;51.674;7.824;2022-11-25T04:24:04;0.08;;;0.08;;
48871;SDS011;36154;51.674;7.824;2022-11-25T04:26:29;1.25;;;0.10;;
48871;SDS011;36154;51.674;7.824;2022-11-25T04:28:55;0.63;;;0.20;;
48871;SDS011;36154;51.674;7.824;2022-11-25T04:31:20;0.10;;;0.10;;
48871;SDS011;36154;51.674;7.824;2022-11-25T04:33:46;0.40;;;0.10;;
48871;SDS011;36154;51.674;7.824;2022-11-25T04:36:11;0.13;;;0.13;;
48871;SDS011;36154;51.674;7.824;2022-11-25T04:38:36;0.00;;;0.00;;
48871;SDS011;36154;51.674;7.824;2022-11-25T04:41:01;0.25;;;0.20;;
48871;SDS011;36154;51.674;7.824;2022-11-25T04:43:27;0.13;;;0.10;;
48871;SDS011;36154;51.674;7.824;2022-11-25T04:45:52;0.35;;;0.15;;
48871;SDS011;36154;51.674;7.824;2022-11-25T04:48:18;0.10;;;0.10;;
48871;SDS011;36154;51.674;7.824;2022-11-25T04:50:43;0.30;;;0.00;;
48871;SDS011;36154;51.674;7.824;2022-11-25T04:53:09;0.00;;;0.00;;
48871;SDS011;36154;51.674;7.824;2022-11-25T04:55:34;0.10;;;0.10;;
48871;SDS011;36154;51.674;7.824;2022-11-25T04:58:00;0.10;;;0.10;;
48871;SDS011;36154;51.674;7.824;2022-11-25T05:00:25;0.10;;;0.10;;
48871;SDS011;36154;51.674;7.824;2022-11-25T05:02:50;0.43;;;0.30;;
48871;SDS011;36154;51.674;7.824;2022-11-25T05:05:16;6.70;;;1.42;;
48871;SDS011;36154;51.674;7.824;2022-11-25T05:07:41;2.95;;;0.65;;
48871;SDS011;36154;51.674;7.824;2022-11-25T05:10:07;3.05;;;0.82;;
48871;SDS011;36154;51.674;7.824;2022-11-25T05:12:33;5.88;;;1.05;;
48871;SDS011;36154;51.674;7.824;2022-11-25T05:14:58;6.68;;;1.48;;
48871;SDS011;36154;51.674;7.824;2022-11-25T05:17:25;26.52;;;3.45;;
48871;SDS011;36154;51.674;7.824;2022-11-25T05:19:54;31.05;;;4.55;;
48871;SDS011;36154;51.674;7.824;2022-11-25T05:22:24;26.27;;;5.10;;
48871;SDS011;36154;51.674;7.824;2022-11-25T05:24:52;25.90;;;4.45;;
48871;SDS011;36154;51.674;7.824;2022-11-25T05:27:17;29.00;;;4.95;;
48871;SDS011;36154;51.674;7.824;2022-11-25T05:29:43;36.65;;;5.68;;
48871;SDS011;36154;51.674;7.824;2022-11-25T05:32:09;31.55;;;5.32;;
48871;SDS011;36154;51.674;7.824;2022-11-25T05:34:35;31.40;;;6.15;;
48871;SDS011;36154;51.674;7.824;2022-11-25T05:37:01;30.33;;;5.13;;
48871;SDS011;36154;51.674;7.824;2022-11-25T05:39:27;27.25;;;4.72;;
48871;SDS011;36154;51.674;7.824;2022-11-25T05:41:52;21.10;;;4.30;;
48871;SDS011;36154;51.674;7.824;2022-11-25T05:44:17;17.63;;;3.75;;
48871;SDS011;36154;51.674;7.824;2022-11-25T05:46:43;18.00;;;4.70;;
48871;SDS011;36154;51.674;7.824;2022-11-25T05:49:10;21.20;;;4.10;;
48871;SDS011;36154;51.674;7.824;2022-11-25T05:51:36;13.75;;;3.35;;
48871;SDS011;36154;51.674;7.824;2022-11-25T05:54:01;17.38;;;3.58;;
48871;SDS011;36154;51.674;7.824;2022-11-25T05:56:26;11.50;;;3.30;;
48871;SDS011;36154;51.674;7.824;2022-11-25T05:58:52;11.32;;;3.38;;
48871;SDS011;36154;51.674;7.824;2022-11-25T06:01:19;20.38;;;3.67;;
48871;SDS011;36154;51.674;7.824;2022-11-25T06:03:44;15.57;;;2.85;;
48871;SDS011;36154;51.674;7.824;2022-11-25T06:06:10;11.10;;;3.17;;
48871;SDS011;36154;51.674;7.824;2022-11-25T06:08:36;9.70;;;2.50;;
48871;SDS011;36154;51.674;7.824;2022-11-25T06:11:03;11.07;;;2.78;;
48871;SDS011;36154;51.674;7.824;2022-11-25T06:13:33;6.72;;;2.38;;
48871;SDS011;36154;51.674;7.824;2022-11-25T06:15:58;13.70;;;3.22;;
48871;SDS011;36154;51.674;7.824;2022-11-25T06:18:24;10.05;;;2.90;;
48871;SDS011;36154;51.674;7.824;2022-11-25T06:20:56;11.23;;;2.38;;
48871;SDS011;36154;51.674;7.824;2022-11-25T06:23:22;10.43;;;2.25;;
48871;SDS011;36154;51.674;7.824;2022-11-25T06:25:48;11.05;;;2.80;;
48871;SDS011;36154;51.674;7.824;2022-11-25T06:28:13;13.40;;;2.88;;
48871;SDS011;36154;51.674;7.824;2022-11-25T06:30:39;10.13;;;2.78;;
48871;SDS011;36154;51.674;7.824;2022-11-25T06:33:04;13.10;;;2.70;;
48871;SDS011;36154;51.674;7.824;2022-11-25T06:35:29;12.43;;;2.72;;
48871;SDS011;36154;51.674;7.824;2022-11-25T06:37:56;13.85;;;2.85;;
48871;SDS011;36154;51.674;7.824;2022-11-25T06:40:22;6.38;;;2.22;;
48871;SDS011;36154;51.674;7.824;2022-11-25T06:42:47;7.60;;;2.35;;
48871;SDS011;36154;51.674;7.824;2022-11-25T06:45:13;6.28;;;2.47;;
48871;SDS011;36154;51.674;7.824;2022-11-25T06:47:38;5.28;;;2.35;;
48871;SDS011;36154;51.674;7.824;2022-11-25T06:50:03;6.65;;;2.63;;
48871;SDS011;36154;51.674;7.824;2022-11-25T06:52:30;6.45;;;2.33;;
48871;SDS011;36154;51.674;7.824;2022-11-25T06:54:56;6.38;;;2.10;;
48871;SDS011;36154;51.674;7.824;2022-11-25T06:57:21;8.02;;;2.35;;
48871;SDS011;36154;51.674;7.824;2022-11-25T06:59:46;7.63;;;2.13;;
48871;SDS011;36154;51.674;7.824;2022-11-25T07:02:11;7.47;;;2.65;;
48871;SDS011;36154;51.674;7.824;2022-11-25T07:04:37;6.22;;;2.22;;
48871;SDS011;36154;51.674;7.824;2022-11-25T07:07:04;9.05;;;2.50;;
48871;SDS011;36154;51.674;7.824;2022-11-25T07:09:29;7.70;;;2.15;;
48871;SDS011;36154;51.674;7.824;2022-11-25T07:11:55;6.03;;;1.88;;
48871;SDS011;36154;51.674;7.824;2022-11-25T07:14:20;7.00;;;2.20;;
48871;SDS011;36154;51.674;7.824;2022-11-25T07:16:46;5.22;;;2.25;;
48871;SDS011;36154;51.674;7.824;2022-11-25T07:19:12;7.40;;;2.03;;
48871;SDS011;36154;51.674;7.824;2022-11-25T07:21:39;6.05;;;2.13;;
48871;SDS011;36154;51.674;7.824;2022-11-25T07:24:05;5.28;;;1.98;;
48871;SDS011;36154;51.674;7.824;2022-11-25T07:26:32;5.93;;;1.67;;
48871;SDS011;36154;51.674;7.824;2022-11-25T07:29:01;4.30;;;1.85;;
48871;SDS011;36154;51.674;7.824;2022-11-25T07:31:29;4.80;;;1.70;;
48871;SDS011;36154;51.674;7.824;2022-11-25T07:33:57;4.88;;;1.95;;
48871;SDS011;36154;51.674;7.824;2022-11-25T07:36:30;3.15;;;1.65;;
48871;SDS011;36154;51.674;7.824;2022-11-25T07:38:57;6.47;;;1.92;;
48871;SDS011;36154;51.674;7.824;2022-11-25T07:41:25;2.88;;;1.63;;
48871;SDS011;36154;51.674;7.824;2022-11-25T07:43:53;3.58;;;1.50;;
48871;SDS011;36154;51.674;7.824;2022-11-25T07:46:24;6.90;;;1.77;;
48871;SDS011;36154;51.674;7.824;2022-11-25T07:48:51;2.42;;;1.27;;
48871;SDS011;36154;51.674;7.824;2022-11-25T07:51:23;3.63;;;1.80;;
48871;SDS011;36154;51.674;7.824;2022-11-25T07:53:50;4.38;;;1.50;;
48871;SDS011;36154;51.674;7.824;2022-11-25T07:56:17;4.47;;;1.40;;
48871;SDS011;36154;51.674;7.824;2022-11-25T07:58:43;7.30;;;1.85;;
48871;SDS011;36154;51.674;7.824;2022-11-25T08:01:09;3.75;;;1.75;;
48871;SDS011;36154;51.674;7.824;2022-11-25T08:03:37;2.03;;;1.40;;
48871;SDS011;36154;51.674;7.824;2022-11-25T08:06:05;4.00;;;2.13;;
48871;SDS011;36154;51.674;7.824;2022-11-25T08:08:32;1.90;;;1.20;;
48871;SDS011;36154;51.674;7.824;2022-11-25T08:10:57;3.85;;;1.17;;
48871;SDS011;36154;51.674;7.824;2022-11-25T08:13:23;3.03;;;1.05;;
48871;SDS011;36154;51.674;7.824;2022-11-25T08:15:48;3.67;;;1.48;;
48871;SDS011;36154;51.674;7.824;2022-11-25T08:18:14;2.17;;;1.02;;
48871;SDS011;36154;51.674;7.824;2022-11-25T08:20:39;2.20;;;0.98;;
48871;SDS011;36154;51.674;7.824;2022-11-25T08:23:05;1.73;;;1.02;;
48871;SDS011;36154;51.674;7.824;2022-11-25T08:25:30;2.85;;;0.90;;
48871;SDS011;36154;51.674;7.824;2022-11-25T08:27:58;2.10;;;1.20;;
48871;SDS011;36154;51.674;7.824;2022-11-25T08:30:24;1.52;;;0.80;;
48871;SDS011;36154;51.674;7.824;2022-11-25T08:32:50;1.85;;;1.00;;
48871;SDS011;36154;51.674;7.824;2022-11-25T08:35:15;1.52;;;0.93;;
48871;SDS011;36154;51.674;7.824;2022-11-25T08:37:41;1.35;;;0.50;;
48871;SDS011;36154;51.674;7.824;2022-11-25T08:40:06;1.90;;;0.85;;
48871;SDS011;36154;51.674;7.824;2022-11-25T08:42:33;1.23;;;0.70;;
48871;SDS011;36154;51.674;7.824;2022-11-25T08:44:58;1.15;;;0.52;;
48871;SDS011;36154;51.674;7.824;2022-11-25T08:47:25;1.13;;;0.70;;
48871;SDS011;36154;51.674;7.824;2022-11-25T08:49:51;3.15;;;0.90;;
48871;SDS011;36154;51.674;7.824;2022-11-25T08:52:17;2.13;;;0.90;;
48871;SDS011;36154;51.674;7.824;2022-11-25T08:54:43;1.70;;;0.77;;
48871;SDS011;36154;51.674;7.824;2022-11-25T08:57:11;1.02;;;0.60;;
48871;SDS011;36154;51.674;7.824;2022-11-25T08:59:37;1.95;;;0.80;;
48871;SDS011;36154;51.674;7.824;2022-11-25T09:02:03;1.10;;;0.70;;
48871;SDS011;36154;51.674;7.824;2022-11-25T09:04:29;1.77;;;0.70;;
48871;SDS011;36154;51.674;7.824;2022-11-25T09:06:54;2.22;;;1.00;;
48871;SDS011;36154;51.674;7.824;2022-11-25T09:09:19;3.90;;;1.48;;
48871;SDS011;36154;51.674;7.824;2022-11-25T09:11:44;2.00;;;1.20;;
48871;SDS011;36154;51.674;7.824;2022-11-25T09:14:10;6.40;;;1.98;;
48871;SDS011;36154;51.674;7.824;2022-11-25T09:16:35;8.77;;;2.20;;
48871;SDS011;36154;51.674;7.824;2022-11-25T09:19:01;13.13;;;2.60;;
48871;SDS011;36154;51.674;7.824;2022-11-25T09:21:26;18.77;;;3.47;;
48871;SDS011;36154;51.674;7.824;2022-11-25T09:23:52;16.75;;;3.53;;
48871;SDS011;36154;51.674;7.824;2022-11-25T09:26:22;15.65;;;5.13;;
48871;SDS011;36154;51.674;7.824;2022-11-25T09:28:49;22.33;;;5.28;;
48871;SDS011;36154;51.674;7.824;2022-11-25T09:31:15;26.83;;;5.30;;
48871;SDS011;36154;51.674;7.824;2022-11-25T09:33:40;24.35;;;5.60;;
48871;SDS011;36154;51.674;7.824;2022-11-25T09:36:06;19.35;;;4.32;;
48871;SDS011;36154;51.674;7.824;2022-11-25T09:38:31;16.20;;;4.53;;
48871;SDS011;36154;51.674;7.824;2022-11-25T09:46:42;12.23;;;3.53;;
48871;SDS011;36154;51.674;7.824;2022-11-25T09:49:24;10.80;;;3.17;;
48871;SDS011;36154;51.674;7.824;2022-11-25T09:52:18;14.30;;;3.83;;
48871;SDS011;36154;51.674;7.824;2022-11-25T10:00:21;11.60;;;3.42;;
48871;SDS011;36154;51.674;7.824;2022-11-25T10:05:44;11.48;;;3.17;;
48871;SDS011;36154;51.674;7.824;2022-11-25T10:08:22;15.75;;;3.35;;
48871;SDS011;36154;51.674;7.824;2022-11-25T10:10:52;11.75;;;3.47;;
48871;SDS011;36154;51.674;7.824;2022-11-25T10:16:34;11.60;;;3.42;;
48871;SDS011;36154;51.674;7.824;2022-11-25T10:19:14;9.77;;;3.00;;
48871;SDS011;36154;51.674;7.824;2022-11-25T10:21:41;11.38;;;3.10;;
48871;SDS011;36154;51.674;7.824;2022-11-25T10:24:11;9.20;;;2.83;;
48871;SDS011;36154;51.674;7.824;2022-11-25T10:26:39;9.73;;;2.83;;
48871;SDS011;36154;51.674;7.824;2022-11-25T10:31:40;9.27;;;2.55;;
48871;SDS011;36154;51.674;7.824;2022-11-25T10:34:24;6.80;;;2.40;;
48871;SDS011;36154;51.674;7.824;2022-11-25T10:36:58;3.60;;;1.83;;
48871;SDS011;36154;51.674;7.824;2022-11-25T10:39:27;7.40;;;2.30;;
48871;SDS011;36154;51.674;7.824;2022-11-25T10:44:27;4.53;;;2.30;;
48871;SDS011;36154;51.674;7.824;2022-11-25T10:52:12;5.65;;;2.35;;
48871;SDS011;36154;51.674;7.824;2022-11-25T10:54:38;6.43;;;2.00;;
48871;SDS011;36154;51.674;7.824;2022-11-25T10:57:15;4.13;;;1.42;;
48871;SDS011;36154;51.674;7.824;2022-11-25T10:59:43;3.40;;;1.70;;
48871;SDS011;36154;51.674;7.824;2022-11-25T11:02:22;3.63;;;1.85;;
48871;SDS011;36154;51.674;7.824;2022-11-25T11:04:54;2.70;;;1.67;;
48871;SDS011;36154;51.674;7.824;2022-11-25T11:07:22;10.63;;;1.80;;
48871;SDS011;36154;51.674;7.824;2022-11-25T11:09:49;3.28;;;1.67;;
48871;SDS011;36154;51.674;7.824;2022-11-25T11:12:22;3.92;;;1.85;;
48871;SDS011;36154;51.674;7.824;2022-11-25T11:14:53;3.08;;;1.55;;
48871;SDS011;36154;51.674;7.824;2022-11-25T11:17:39;2.17;;;1.00;;
48871;SDS011;36154;51.674;7.824;2022-11-25T11:22:36;5.97;;;1.35;;
48871;SDS011;36154;51.674;7.824;2022-11-25T11:27:59;3.55;;;1.30;;
48871;SDS011;36154;51.674;7.824;2022-11-25T11:30:27;3.28;;;1.33;;
48871;SDS011;36154;51.674;7.824;2022-11-25T11:32:59;2.92;;;1.33;;
48871;SDS011;36154;51.674;7.824;2022-11-25T11:35:53;3.08;;;1.38;;
48871;SDS011;36154;51.674;7.824;2022-11-25T11:38:41;2.33;;;1.13;;
48871;SDS011;36154;51.674;7.824;2022-11-25T11:41:25;1.42;;;1.00;;
48871;SDS011;36154;51.674;7.824;2022-11-25T11:44:19;4.10;;;0.98;;
48871;SDS011;36154;51.674;7.824;2022-11-25T11:47:12;1.67;;;1.00;;
48871;SDS011;36154;51.674;7.824;2022-11-25T11:52:34;5.57;;;0.95;;
48871;SDS011;36154;51.674;7.824;2022-11-25T11:55:01;1.73;;;0.82;;
48871;SDS011;36154;51.674;7.824;2022-11-25T11:58:01;1.10;;;1.00;;
48871;SDS011;36154;51.674;7.824;2022-11-25T12:03:28;2.28;;;0.98;;
48871;SDS011;36154;51.674;7.824;2022-11-25T12:05:59;1.00;;;0.85;;
48871;SDS011;36154;51.674;7.824;2022-11-25T12:11:03;1.15;;;1.05;;
48871;SDS011;36154;51.674;7.824;2022-11-25T12:16:29;1.10;;;0.77;;
48871;SDS011;36154;51.674;7.824;2022-11-25T12:19:08;2.17;;;1.00;;
48871;SDS011;36154;51.674;7.824;2022-11-25T12:21:50;1.58;;;0.90;;
48871;SDS011;36154;51.674;7.824;2022-11-25T12:24:32;2.47;;;0.88;;
48871;SDS011;36154;51.674;7.824;2022-11-25T12:37:44;1.25;;;0.73;;
48871;SDS011;36154;51.674;7.824;2022-11-25T12:40:19;1.20;;;0.70;;
48871;SDS011;36154;51.674;7.824;2022-11-25T12:42:48;0.80;;;0.60;;
48871;SDS011;36154;51.674;7.824;2022-11-25T12:45:19;1.92;;;1.00;;
48871;SDS011;36154;51.674;7.824;2022-11-25T12:47:47;3.40;;;1.10;;
48871;SDS011;36154;51.674;7.824;2022-11-25T12:50:15;6.30;;;0.82;;
48871;SDS011;36154;51.674;7.824;2022-11-25T12:52:59;1.35;;;0.70;;
48871;SDS011;36154;51.674;7.824;2022-11-25T12:55:28;1.33;;;0.85;;
48871;SDS011;36154;51.674;7.824;2022-11-25T13:00:42;1.25;;;0.70;;
48871;SDS011;36154;51.674;7.824;2022-11-25T13:17:17;1.27;;;0.75;;
48871;SDS011;36154;51.674;7.824;2022-11-25T13:19:43;1.00;;;0.80;;
48871;SDS011;36154;51.674;7.824;2022-11-25T13:24:46;1.90;;;0.68;;
48871;SDS011;36154;51.674;7.824;2022-11-25T13:29:57;0.70;;;0.50;;
48871;SDS011;36154;51.674;7.824;2022-11-25T13:32:25;1.02;;;0.50;;
48871;SDS011;36154;51.674;7.824;2022-11-25T13:35:28;0.90;;;0.60;;
48871;SDS011;36154;51.674;7.824;2022-11-25T13:37:53;0.40;;;0.30;;
48871;SDS011;36154;51.674;7.824;2022-11-25T13:42:47;0.55;;;0.52;;
48871;SDS011;36154;51.674;7.824;2022-11-25T13:53:50;0.75;;;0.40;;
48871;SDS011;36154;51.674;7.824;2022-11-25T13:56:42;0.63;;;0.63;;
48871;SDS011;36154;51.674;7.824;2022-11-25T14:01:36;1.02;;;0.50;;
48871;SDS011;36154;51.674;7.824;2022-11-25T14:04:04;0.55;;;0.52;;
48871;SDS011;36154;51.674;7.824;2022-11-25T14:15:13;0.80;;;0.50;;
48871;SDS011;36154;51.674;7.824;2022-11-25T14:20:50;0.60;;;0.50;;
48871;SDS011;36154;51.674;7.824;2022-11-25T14:32:01;0.63;;;0.40;;
48871;SDS011;36154;51.674;7.824;2022-11-25T14:34:32;0.50;;;0.50;;
48871;SDS011;36154;51.674;7.824;2022-11-25T14:37:17;1.75;;;0.75;;
48871;SDS011;36154;51.674;7.824;2022-11-25T14:40:09;0.60;;;0.38;;
48871;SDS011;36154;51.674;7.824;2022-11-25T14:42:34;1.33;;;0.50;;
48871;SDS011;36154;51.674;7.824;2022-11-25T14:45:03;0.40;;;0.40;;
48871;SDS011;36154;51.674;7.824;2022-11-25T14:47:47;0.43;;;0.40;;
48871;SDS011;36154;51.674;7.824;2022-11-25T14:50:13;0.47;;;0.40;;
48871;SDS011;36154;51.674;7.824;2022-11-25T14:52:39;0.50;;;0.40;;
48871;SDS011;36154;51.674;7.824;2022-11-25T14:55:11;1.00;;;0.50;;
48871;SDS011;36154;51.674;7.824;2022-11-25T14:57:37;0.98;;;0.50;;
48871;SDS011;36154;51.674;7.824;2022-11-25T15:02:41;0.98;;;0.50;;
48871;SDS011;36154;51.674;7.824;2022-11-25T15:05:29;1.45;;;0.40;;
48871;SDS011;36154;51.674;7.824;2022-11-25T15:07:58;0.47;;;0.43;;
48871;SDS011;36154;51.674;7.824;2022-11-25T15:10:50;0.60;;;0.40;;
48871;SDS011;36154;51.674;7.824;2022-11-25T15:18:49;0.70;;;0.32;;
48871;SDS011;36154;51.674;7.824;2022-11-25T15:21:22;0.30;;;0.30;;
48871;SDS011;36154;51.674;7.824;2022-11-25T15:23:52;0.30;;;0.20;;
48871;SDS011;36154;51.674;7.824;2022-11-25T15:26:21;0.63;;;0.30;;
48871;SDS011;36154;51.674;7.824;2022-11-25T15:28:52;0.55;;;0.38;;
48871;SDS011;36154;51.674;7.824;2022-11-25T15:31:20;0.50;;;0.30;;
48871;SDS011;36154;51.674;7.824;2022-11-25T15:33:49;0.57;;;0.22;;
48871;SDS011;36154;51.674;7.824;2022-11-25T15:36:18;0.30;;;0.25;;
48871;SDS011;36154;51.674;7.824;2022-11-25T15:38:46;0.98;;;0.30;;
48871;SDS011;36154;51.674;7.824;2022-11-25T15:41:19;0.28;;;0.20;;
48871;SDS011;36154;51.674;7.824;2022-11-25T15:43:57;0.20;;;0.20;;
48871;SDS011;36154;51.674;7.824;2022-11-25T15:46:25;0.45;;;0.30;;
48871;SDS011;36154;51.674;7.824;2022-11-25T15:48:52;0.60;;;0.30;;
48871;SDS011;36154;51.674;7.824;2022-11-25T15:51:30;0.73;;;0.20;;
48871;SDS011;36154;51.674;7.824;2022-11-25T15:54:04;0.30;;;0.30;;
48871;SDS011;36154;51.674;7.824;2022-11-25T15:56:48;0.65;;;0.40;;
48871;SDS011;36154;51.674;7.824;2022-11-25T16:12:41;1.42;;;0.40;;
48871;SDS011;36154;51.674;7.824;2022-11-25T16:15:15;0.85;;;0.40;;
48871;SDS011;36154;51.674;7.824;2022-11-25T16:17:43;1.35;;;0.70;;
48871;SDS011;36154;51.674;7.824;2022-11-25T16:20:26;0.73;;;0.57;;
48871;SDS011;36154;51.674;7.824;2022-11-25T16:22:51;0.77;;;0.57;;
48871;SDS011;36154;51.674;7.824;2022-11-25T16:25:17;1.20;;;0.60;;
48871;SDS011;36154;51.674;7.824;2022-11-25T16:27:42;0.63;;;0.40;;
48871;SDS011;36154;51.674;7.824;2022-11-25T16:30:16;1.75;;;0.60;;
48871;SDS011;36154;51.674;7.824;2022-11-25T16:32:45;0.90;;;0.50;;
48871;SDS011;36154;51.674;7.824;2022-11-25T16:35:12;1.67;;;0.80;;
48871;SDS011;36154;51.674;7.824;2022-11-25T16:37:39;0.90;;;0.80;;
48871;SDS011;36154;51.674;7.824;2022-11-25T16:40:05;0.95;;;0.57;;
48871;SDS011;36154;51.674;7.824;2022-11-25T16:42:32;1.00;;;0.70;;
48871;SDS011;36154;51.674;7.824;2022-11-25T16:44:58;0.82;;;0.63;;
48871;SDS011;36154;51.674;7.824;2022-11-25T16:47:25;0.80;;;0.80;;
48871;SDS011;36154;51.674;7.824;2022-11-25T16:49:50;0.73;;;0.68;;
48871;SDS011;36154;51.674;7.824;2022-11-25T16:52:18;0.73;;;0.73;;
48871;SDS011;36154;51.674;7.824;2022-11-25T16:54:46;1.00;;;0.90;;
48871;SDS011;36154;51.674;7.824;2022-11-25T16:57:16;1.40;;;0.85;;
48871;SDS011;36154;51.674;7.824;2022-11-25T16:59:44;2.97;;;0.70;;
48871;SDS011;36154;51.674;7.824;2022-11-25T17:02:17;0.98;;;0.80;;
48871;SDS011;36154;51.674;7.824;2022-11-25T17:04:44;0.73;;;0.73;;
48871;SDS011;36154;51.674;7.824;2022-11-25T17:07:11;0.77;;;0.77;;
48871;SDS011;36154;51.674;7.824;2022-11-25T17:09:38;0.60;;;0.60;;
48871;SDS011;36154;51.674;7.824;2022-11-25T17:12:04;0.70;;;0.60;;